createdAt,value
2018-03-07T00:02:26.607Z,126.97
2018-03-07T00:04:54.840Z,115.93
2018-03-07T00:07:23.092Z,118.10
2018-03-07T00:09:52.096Z,121.87
2018-03-07T00:12:21.118Z,109.93
2018-03-07T00:14:49.363Z,123.37
2018-03-07T00:17:18.368Z,124.80
2018-03-07T00:19:46.619Z,121.97
2018-03-07T00:22:15.643Z,122.00
2018-03-07T00:24:43.875Z,122.13
2018-03-07T00:27:12.116Z,119.70
2018-03-07T00:29:40.363Z,126.30
2018-03-07T00:32:08.613Z,116.90
2018-03-07T00:34:37.620Z,122.40
2018-03-07T00:37:05.872Z,127.67
2018-03-07T00:39:34.872Z,121.47
2018-03-07T00:42:03.892Z,123.13
2018-03-07T00:44:32.128Z,116.47
2018-03-07T00:47:01.146Z,110.20
2018-03-07T00:49:29.380Z,119.63
2018-03-07T00:51:57.615Z,117.33
2018-03-07T00:54:25.857Z,112.43
2018-03-07T00:56:54.115Z,107.77
2018-03-07T00:59:23.111Z,118.40
2018-03-07T01:01:52.124Z,112.37
2018-03-07T01:04:20.364Z,116.93
2018-03-07T01:06:48.615Z,112.63
2018-03-07T01:09:16.840Z,122.27
2018-03-07T01:11:45.097Z,116.77
2018-03-07T01:14:13.320Z,101.50
2018-03-07T01:16:41.581Z,111.33
2018-03-07T01:19:10.126Z,113.63
2018-03-07T01:21:39.120Z,122.93
2018-03-07T01:24:08.131Z,119.23
2018-03-07T01:26:36.365Z,123.20
2018-03-07T01:29:04.608Z,124.83
2018-03-07T01:31:32.848Z,112.17
2018-03-07T01:34:01.101Z,124.13
2018-03-07T01:36:30.097Z,122.03
2018-03-07T01:38:59.114Z,121.80
2018-03-07T01:41:27.346Z,118.07
2018-03-07T01:43:55.588Z,119.33
2018-03-07T01:46:23.820Z,119.90
2018-03-07T01:48:52.076Z,111.63
2018-03-07T01:51:21.072Z,122.80
2018-03-07T01:53:50.072Z,116.50
2018-03-07T01:56:19.088Z,123.17
2018-03-07T01:58:47.323Z,124.67
2018-03-07T02:01:16.345Z,123.63
2018-03-07T02:03:44.576Z,110.10
2018-03-07T02:06:12.819Z,119.70
2018-03-07T02:08:41.053Z,133.27
2018-03-07T02:11:09.303Z,122.73
2018-03-07T02:13:37.531Z,138.83
2018-03-07T02:16:05.784Z,130.33
2018-03-07T02:18:34.020Z,142.47
2018-03-07T02:21:02.512Z,142.13
2018-03-07T02:23:31.521Z,134.13
2018-03-07T02:25:59.754Z,135.13
2018-03-07T02:28:28.004Z,134.57
2018-03-07T02:30:56.241Z,134.27
2018-03-07T02:33:24.902Z,128.97
2018-03-07T02:35:53.112Z,134.27
2018-03-07T02:38:21.377Z,130.00
2018-03-07T02:40:49.619Z,142.87
2018-03-07T02:43:17.861Z,142.67
2018-03-07T02:45:46.108Z,136.80
2018-03-07T02:48:14.349Z,139.97
2018-03-07T02:50:43.359Z,143.90
2018-03-07T02:53:12.388Z,132.17
2018-03-07T02:55:40.624Z,137.43
2018-03-07T02:58:08.861Z,142.77
2018-03-07T03:00:37.109Z,139.40
2018-03-07T03:03:05.357Z,143.07
2018-03-07T03:05:33.604Z,134.30
2018-03-07T03:08:02.611Z,138.43
2018-03-07T03:13:05.163Z,145.07
2018-03-07T03:15:33.407Z,154.17
2018-03-07T03:18:01.649Z,144.20
2018-03-07T03:20:30.677Z,140.60
2018-03-07T03:22:58.896Z,144.20
2018-03-07T03:25:27.926Z,140.67
2018-03-07T03:27:56.172Z,150.13
2018-03-07T03:30:25.194Z,162.00
2018-03-07T03:32:53.445Z,140.43
2018-03-07T03:35:21.712Z,138.27
2018-03-07T03:37:50.712Z,146.50
2018-03-07T03:40:19.707Z,143.43
2018-03-07T03:42:47.965Z,152.80
2018-03-07T03:45:16.963Z,151.83
2018-03-07T03:47:45.990Z,159.17
2018-03-07T03:50:14.247Z,145.80
2018-03-07T03:52:42.492Z,155.40
2018-03-07T03:55:11.496Z,155.63
2018-03-07T03:57:39.759Z,138.87
2018-03-07T04:00:08.776Z,148.40
2018-03-07T04:02:37.049Z,152.37
2018-03-07T04:05:05.289Z,160.57
2018-03-07T04:07:33.532Z,155.70
2018-03-07T04:10:01.788Z,150.07
2018-03-07T04:12:30.038Z,150.40
2018-03-07T04:14:58.291Z,148.97
2018-03-07T04:17:27.304Z,149.57
2018-03-07T04:19:55.568Z,144.97
2018-03-07T04:22:24.572Z,150.27
2018-03-07T04:24:52.816Z,139.03
2018-03-07T04:27:21.079Z,147.40
2018-03-07T04:29:49.316Z,138.83
2018-03-07T04:32:17.584Z,140.63
2018-03-07T04:34:45.824Z,135.73
2018-03-07T04:37:14.858Z,148.40
2018-03-07T04:39:43.150Z,148.97
2018-03-07T04:42:11.379Z,142.47
2018-03-07T04:44:39.621Z,139.77
2018-03-07T04:47:07.881Z,146.03
2018-03-07T04:49:36.121Z,142.07
2018-03-07T04:52:04.402Z,141.20
2018-03-07T04:54:32.636Z,146.53
2018-03-07T04:57:01.640Z,148.80
2018-03-07T04:59:29.899Z,143.30
2018-03-07T05:01:58.915Z,155.47
2018-03-07T05:04:27.172Z,147.87
2018-03-07T05:06:56.180Z,143.23
2018-03-07T05:09:24.444Z,142.70
2018-03-07T05:11:52.690Z,135.93
2018-03-07T05:14:20.936Z,139.53
2018-03-07T05:16:49.181Z,154.53
2018-03-07T05:19:17.449Z,149.73
2018-03-07T05:21:45.704Z,156.47
2018-03-07T05:24:14.717Z,158.20
2018-03-07T05:26:42.995Z,152.27
2018-03-07T05:29:11.443Z,159.77
2018-03-07T05:31:40.464Z,140.70
2018-03-07T05:34:08.708Z,153.23
2018-03-07T05:36:37.732Z,150.97
2018-03-07T05:39:05.979Z,142.97
2018-03-07T05:41:34.989Z,147.77
2018-03-07T05:44:03.243Z,160.83
2018-03-07T05:46:32.268Z,144.53
2018-03-07T05:49:00.514Z,145.20
2018-03-07T05:51:29.520Z,154.23
2018-03-07T05:53:57.785Z,155.23
2018-03-07T05:56:26.798Z,168.67
2018-03-07T05:58:55.051Z,168.17
2018-03-07T06:01:23.312Z,155.83
2018-03-07T06:03:51.552Z,159.33
2018-03-07T06:06:19.796Z,161.97
2018-03-07T06:08:48.060Z,159.83
2018-03-07T06:11:16.309Z,167.10
2018-03-07T06:13:45.346Z,164.90
2018-03-07T06:16:13.662Z,158.27
2018-03-07T06:18:41.920Z,165.43
2018-03-07T06:21:10.171Z,156.17
2018-03-07T06:23:38.409Z,157.93
2018-03-07T06:26:07.433Z,161.60
2018-03-07T06:28:35.676Z,154.17
2018-03-07T06:31:04.701Z,158.43
2018-03-07T06:33:32.951Z,147.40
2018-03-07T06:36:01.229Z,171.13
2018-03-07T06:38:29.468Z,167.93
2018-03-07T06:40:57.718Z,158.87
2018-03-07T06:43:25.956Z,164.97
2018-03-07T06:45:54.225Z,150.20
2018-03-07T06:48:22.459Z,157.20
2018-03-07T06:50:50.712Z,178.27
2018-03-07T06:53:18.948Z,166.47
2018-03-07T06:55:47.204Z,165.17
2018-03-07T06:58:16.209Z,163.87
2018-03-07T07:00:44.450Z,161.53
2018-03-07T07:03:12.720Z,155.53
2018-03-07T07:05:40.944Z,157.13
2018-03-07T07:08:09.205Z,163.33
2018-03-07T07:10:37.433Z,166.70
2018-03-07T07:13:05.684Z,160.83
2018-03-07T07:15:33.925Z,164.47
2018-03-07T07:18:02.178Z,157.97
2018-03-07T07:20:31.184Z,160.97
2018-03-07T07:22:59.450Z,155.40
2018-03-07T07:25:28.445Z,159.57
2018-03-07T07:27:57.468Z,152.90
2018-03-07T07:30:25.713Z,146.77
2018-03-07T07:32:54.718Z,150.43
2018-03-07T07:35:22.974Z,147.00
2018-03-07T07:37:51.980Z,158.83
2018-03-07T07:40:20.231Z,143.97
2018-03-07T07:42:49.235Z,156.47
2018-03-07T07:45:18.261Z,147.90
2018-03-07T07:47:46.492Z,153.40
2018-03-07T07:50:15.523Z,146.57
2018-03-07T07:52:43.759Z,139.07
2018-03-07T07:55:12.824Z,143.23
2018-03-07T07:57:41.111Z,146.87
2018-03-07T08:00:09.324Z,147.30
2018-03-07T08:02:37.570Z,146.53
2018-03-07T08:05:06.582Z,158.27
2018-03-07T08:07:34.842Z,156.47
2018-03-07T08:10:03.848Z,146.50
2018-03-07T08:12:32.102Z,149.83
2018-03-07T08:15:01.113Z,145.77
2018-03-07T08:17:29.372Z,151.60
2018-03-07T08:19:58.376Z,152.13
2018-03-07T08:22:26.637Z,151.03
2018-03-07T08:24:55.645Z,142.93
2018-03-07T08:27:23.906Z,136.63
2018-03-07T08:29:52.917Z,153.10
2018-03-07T08:32:21.174Z,144.47
2018-03-07T08:34:50.177Z,151.47
2018-03-07T08:37:18.433Z,147.67
2018-03-07T08:39:47.465Z,135.97
2018-03-07T08:42:15.695Z,135.93
2018-03-07T08:44:44.714Z,143.63
2018-03-07T08:47:12.976Z,134.17
2018-03-07T08:49:42.008Z,137.90
2018-03-07T08:52:10.242Z,136.70
2018-03-07T08:54:39.262Z,136.40
2018-03-07T08:57:07.498Z,137.00
2018-03-07T08:59:36.524Z,132.23
2018-03-07T09:02:04.773Z,130.60
2018-03-07T09:04:33.782Z,131.60
2018-03-07T09:07:02.045Z,135.20
2018-03-07T09:09:30.291Z,135.63
2018-03-07T09:11:58.533Z,137.30
2018-03-07T09:14:26.775Z,132.83
2018-03-07T09:16:55.029Z,138.63
2018-03-07T09:19:24.421Z,133.17
2018-03-07T09:21:53.725Z,130.70
2018-03-07T09:24:22.725Z,131.30
2018-03-07T09:26:51.750Z,129.10
2018-03-07T09:29:19.989Z,129.43
2018-03-07T09:31:49.008Z,137.27
2018-03-07T09:34:17.245Z,127.33
2018-03-07T09:36:46.254Z,129.27
2018-03-07T09:39:14.908Z,134.37
2018-03-07T09:41:43.117Z,129.83
2018-03-07T09:44:11.370Z,124.13
2018-03-07T09:46:40.377Z,129.43
2018-03-07T09:49:08.638Z,129.33
2018-03-07T09:51:37.645Z,123.83
2018-03-07T09:54:05.899Z,128.60
2018-03-07T09:56:34.976Z,129.67
2018-03-07T09:59:03.166Z,132.20
2018-03-07T10:01:32.160Z,126.50
2018-03-07T10:04:01.181Z,122.97
2018-03-07T10:06:29.425Z,128.97
2018-03-07T10:08:58.440Z,124.37
2018-03-07T10:11:26.687Z,124.50
2018-03-07T10:13:55.692Z,119.60
2018-03-07T10:16:23.950Z,121.87
2018-03-07T10:18:52.954Z,127.27
2018-03-07T10:21:21.979Z,126.83
2018-03-07T10:23:50.204Z,121.50
2018-03-07T10:26:19.229Z,127.17
2018-03-07T10:28:47.474Z,127.97
2018-03-07T10:31:16.488Z,124.47
2018-03-07T10:33:44.722Z,132.50
2018-03-07T10:36:12.956Z,125.77
2018-03-07T10:38:41.276Z,117.07
2018-03-07T10:41:09.505Z,130.67
2018-03-07T10:43:37.765Z,126.13
2018-03-07T10:46:06.003Z,120.47
2018-03-07T10:48:35.035Z,127.90
2018-03-07T10:51:03.277Z,118.70
2018-03-07T10:53:32.291Z,129.40
2018-03-07T10:56:00.541Z,120.27
2018-03-07T10:58:29.536Z,123.53
2018-03-07T11:00:58.557Z,123.13
2018-03-07T11:03:26.797Z,124.33
2018-03-07T11:05:55.812Z,123.87
2018-03-07T11:08:24.055Z,123.87
2018-03-07T11:10:52.305Z,113.50
2018-03-07T11:13:20.549Z,123.13
2018-03-07T11:15:48.805Z,128.40
2018-03-07T11:18:17.054Z,121.40
2018-03-07T11:20:46.061Z,119.63
2018-03-07T11:23:15.085Z,119.03
2018-03-07T11:25:43.322Z,121.90
2018-03-07T11:28:12.342Z,121.50
2018-03-07T11:30:40.582Z,122.67
2018-03-07T11:33:09.601Z,121.43
2018-03-07T11:35:37.845Z,120.37
2018-03-07T11:38:06.861Z,123.17
2018-03-07T11:40:35.097Z,123.40
2018-03-07T11:43:03.344Z,120.33
2018-03-07T11:45:31.581Z,118.30
2018-03-07T11:47:59.838Z,119.33
2018-03-07T11:50:28.845Z,125.57
2018-03-07T11:52:57.097Z,131.27
2018-03-07T11:55:26.099Z,129.30
2018-03-07T11:57:55.121Z,126.90
2018-03-07T12:00:23.360Z,124.50
2018-03-07T12:02:52.371Z,122.17
2018-03-07T12:05:20.627Z,133.40
2018-03-07T12:07:49.628Z,123.00
2018-03-07T12:10:17.881Z,125.77
2018-03-07T12:12:46.879Z,124.70
2018-03-07T12:15:15.906Z,125.63
2018-03-07T12:17:44.142Z,125.17
2018-03-07T12:20:13.157Z,123.80
2018-03-07T12:22:41.395Z,125.97
2018-03-07T12:25:10.261Z,131.87
2018-03-07T12:27:38.493Z,130.83
2018-03-07T12:30:06.965Z,126.17
2018-03-07T12:32:35.960Z,137.50
2018-03-07T12:35:04.220Z,130.03
2018-03-07T12:37:33.227Z,132.03
2018-03-07T12:40:01.460Z,132.83
2018-03-07T12:42:29.706Z,128.43
2018-03-07T12:44:57.958Z,131.90
2018-03-07T12:47:26.209Z,134.47
2018-03-07T12:49:55.207Z,136.60
2018-03-07T12:52:24.221Z,124.80
2018-03-07T12:54:52.456Z,131.80
2018-03-07T12:57:21.477Z,133.67
2018-03-07T12:59:49.712Z,133.57
2018-03-07T13:02:17.970Z,129.83
2018-03-07T13:04:46.209Z,134.97
2018-03-07T13:07:14.460Z,133.30
2018-03-07T13:09:42.696Z,132.33
2018-03-07T13:12:12.462Z,136.57
2018-03-07T13:14:41.729Z,129.77
2018-03-07T13:17:10.729Z,133.67
2018-03-07T13:19:39.755Z,128.83
2018-03-07T13:22:07.992Z,130.93
2018-03-07T13:24:37.009Z,129.50
2018-03-07T13:27:05.249Z,129.10
2018-03-07T13:29:34.272Z,129.20
2018-03-07T13:32:02.505Z,124.23
2018-03-07T13:34:30.777Z,120.77
2018-03-07T13:36:58.996Z,121.17
2018-03-07T13:39:27.253Z,111.60
2018-03-07T13:41:55.484Z,123.10
2018-03-07T13:44:23.741Z,116.00
2018-03-07T13:46:51.987Z,123.27
2018-03-07T13:49:20.546Z,112.90
2018-03-07T13:51:49.561Z,116.23
2018-03-07T13:54:17.796Z,119.33
2018-03-07T13:56:46.041Z,108.90
2018-03-07T13:59:14.273Z,114.93
2018-03-07T14:01:42.528Z,113.50
2018-03-07T14:04:11.528Z,109.30
2018-03-07T14:06:40.546Z,108.83
2018-03-07T14:09:08.780Z,108.70
2018-03-07T14:11:37.866Z,106.40
2018-03-07T14:14:06.104Z,100.77
2018-03-07T14:16:34.366Z,102.90
2018-03-07T14:19:02.612Z,103.07
2018-03-07T14:21:31.617Z,106.40
2018-03-07T14:23:59.869Z,103.57
2018-03-07T14:26:28.872Z,101.93
2018-03-07T14:28:57.136Z,100.83
2018-03-07T14:31:26.124Z,99.53
2018-03-07T14:33:55.136Z,96.80
2018-03-07T14:36:23.377Z,91.53
2018-03-07T14:38:51.618Z,85.00
2018-03-07T14:41:19.852Z,82.07
2018-03-07T14:43:48.086Z,83.07
2018-03-07T14:46:16.342Z,88.40
2018-03-07T14:48:44.557Z,85.70
2018-03-07T14:51:13.572Z,88.57
2018-03-07T14:53:41.809Z,84.50
2018-03-07T14:56:10.048Z,82.63
2018-03-07T14:58:38.276Z,92.57
2018-03-07T15:01:07.303Z,92.43
2018-03-07T15:03:35.524Z,86.10
2018-03-07T15:06:03.784Z,83.10
2018-03-07T15:08:32.021Z,85.57
2018-03-07T15:11:00.249Z,86.37
2018-03-07T15:13:29.264Z,89.77
2018-03-07T15:15:57.498Z,86.30
2018-03-07T15:18:26.192Z,89.00
2018-03-07T15:20:54.401Z,89.40
2018-03-07T15:23:22.653Z,86.77
2018-03-07T15:25:51.649Z,90.70
2018-03-07T15:28:20.665Z,88.83
2018-03-07T15:30:48.958Z,94.70
2018-03-07T15:33:17.208Z,89.97
2018-03-07T15:35:45.429Z,87.63
2018-03-07T15:38:13.681Z,91.03
2018-03-07T15:40:41.904Z,86.47
2018-03-07T15:43:10.920Z,90.03
2018-03-07T15:45:39.154Z,88.33
2018-03-07T15:48:07.384Z,88.23
2018-03-07T15:50:35.648Z,92.10
2018-03-07T15:53:03.882Z,88.87
2018-03-07T15:55:32.124Z,92.93
2018-03-07T15:58:00.352Z,87.73
2018-03-07T16:00:29.415Z,86.63
2018-03-07T16:02:57.626Z,89.23
2018-03-07T16:05:25.876Z,94.93
2018-03-07T16:07:54.864Z,95.60
2018-03-07T16:10:23.856Z,98.53
2018-03-07T16:12:52.864Z,94.40
2018-03-07T16:15:21.101Z,96.10
2018-03-07T16:17:49.349Z,89.13
2018-03-07T16:20:17.564Z,94.27
2018-03-07T16:22:46.598Z,92.33
2018-03-07T16:25:14.825Z,95.77
2018-03-07T16:27:43.064Z,89.73
2018-03-07T16:30:11.288Z,87.17
2018-03-07T16:32:40.304Z,88.30
2018-03-07T16:35:08.548Z,91.73
2018-03-07T16:37:37.553Z,92.17
2018-03-07T16:40:06.554Z,86.80
2018-03-07T16:42:34.817Z,85.23
2018-03-07T16:45:03.815Z,82.33
2018-03-07T16:47:32.072Z,87.90
2018-03-07T16:50:01.079Z,86.87
2018-03-07T16:52:30.073Z,80.13
2018-03-07T16:54:58.321Z,91.27
2018-03-07T16:57:26.556Z,88.73
2018-03-07T16:59:54.810Z,83.40
2018-03-07T17:02:23.053Z,87.90
2018-03-07T17:04:52.065Z,89.27
2018-03-07T17:07:20.310Z,87.67
2018-03-07T17:09:49.315Z,83.07
2018-03-07T17:12:18.321Z,91.43
2018-03-07T17:14:46.576Z,88.00
2018-03-07T17:17:15.575Z,82.80
2018-03-07T17:19:44.593Z,90.03
2018-03-07T17:22:12.833Z,86.07
2018-03-07T17:24:41.847Z,91.77
2018-03-07T17:27:10.081Z,87.23
2018-03-07T17:29:38.318Z,88.93
2018-03-07T17:32:06.589Z,91.90
2018-03-07T17:34:35.026Z,92.70
2018-03-07T17:37:04.097Z,89.77
2018-03-07T17:39:32.366Z,94.60
2018-03-07T17:42:00.652Z,97.00
2018-03-07T17:44:28.895Z,91.80
2018-03-07T17:46:57.145Z,94.37
2018-03-07T17:49:25.377Z,97.47
2018-03-07T17:51:53.626Z,94.07
2018-03-07T17:54:21.852Z,94.00
2018-03-07T17:56:50.101Z,98.27
2018-03-07T17:59:18.333Z,96.20
2018-03-07T18:01:46.590Z,98.07
2018-03-07T18:04:14.826Z,91.00
2018-03-07T18:06:44.832Z,100.30
2018-03-07T18:09:13.116Z,105.80
2018-03-07T18:11:42.119Z,99.70
2018-03-07T18:14:11.120Z,96.37
2018-03-07T18:16:39.404Z,100.87
2018-03-07T18:19:07.634Z,106.87
2018-03-07T18:21:35.893Z,104.73
2018-03-07T18:24:04.137Z,100.57
2018-03-07T18:26:32.397Z,102.97
2018-03-07T18:29:00.637Z,96.03
2018-03-07T18:31:28.885Z,96.43
2018-03-07T18:33:57.113Z,96.17
2018-03-07T18:36:25.367Z,96.13
2018-03-07T18:38:54.370Z,91.70
2018-03-07T18:41:23.372Z,98.57
2018-03-07T18:43:51.617Z,95.73
2018-03-07T18:46:19.853Z,100.73
2018-03-07T18:48:48.106Z,106.07
2018-03-07T18:51:16.354Z,101.37
2018-03-07T18:53:45.364Z,105.20
2018-03-07T18:56:13.605Z,105.30
2018-03-07T18:58:42.611Z,107.67
2018-03-07T19:01:10.849Z,108.00
2018-03-07T19:03:39.106Z,105.23
2018-03-07T19:06:07.341Z,107.13
2018-03-07T19:08:35.594Z,98.87
2018-03-07T19:11:03.820Z,102.00
2018-03-07T19:13:32.083Z,106.93
2018-03-07T19:16:00.372Z,107.10
2018-03-07T19:18:28.633Z,116.40
2018-03-07T19:20:56.869Z,118.43
2018-03-07T19:23:25.885Z,125.83
2018-03-07T19:25:54.133Z,112.80
2018-03-07T19:28:23.151Z,113.33
2018-03-07T19:30:51.393Z,110.23
2018-03-07T19:33:20.408Z,106.67
2018-03-07T19:35:48.655Z,102.73
2018-03-07T19:38:16.897Z,107.90
2018-03-07T19:40:45.140Z,109.13
2018-03-07T19:43:13.384Z,115.37
2018-03-07T19:45:42.402Z,104.77
2018-03-07T19:48:10.632Z,110.13
2018-03-07T19:50:38.895Z,121.47
2018-03-07T19:53:07.140Z,104.60
2018-03-07T19:55:35.391Z,106.70
2018-03-07T19:58:03.624Z,109.33
2018-03-07T20:00:31.870Z,109.20
2018-03-07T20:03:00.112Z,107.47
2018-03-07T20:05:28.369Z,120.73
2018-03-07T20:07:57.368Z,119.17
2018-03-07T20:10:26.393Z,117.23
2018-03-07T20:12:54.625Z,117.60
2018-03-07T20:15:23.650Z,109.17
2018-03-07T20:17:51.900Z,113.83
2018-03-07T20:20:20.916Z,115.33
2018-03-07T20:22:49.157Z,112.73
2018-03-07T20:25:18.185Z,111.60
2018-03-07T20:27:46.420Z,108.53
2018-03-07T20:30:15.433Z,111.67
2018-03-07T20:32:43.664Z,110.67
2018-03-07T20:35:11.915Z,120.97
2018-03-07T20:37:40.155Z,117.80
2018-03-07T20:40:08.412Z,113.23
2018-03-07T20:42:37.424Z,112.27
2018-03-07T20:45:05.685Z,117.17
2018-03-07T20:47:34.688Z,125.00
2018-03-07T20:50:02.954Z,113.17
2018-03-07T20:52:31.951Z,113.53
2018-03-07T20:55:00.205Z,120.67
2018-03-07T20:57:29.253Z,131.23
2018-03-07T20:59:57.513Z,123.57
2018-03-07T21:02:25.744Z,130.73
2018-03-07T21:04:54.752Z,139.33
2018-03-07T21:07:23.773Z,140.17
2018-03-07T21:09:52.000Z,137.30
2018-03-07T21:12:21.017Z,142.37
2018-03-07T21:14:49.256Z,140.97
2018-03-07T21:17:17.513Z,154.07
2018-03-07T21:19:46.509Z,145.70
2018-03-07T21:22:14.752Z,139.07
2018-03-07T21:24:42.988Z,156.87
2018-03-07T21:27:11.999Z,170.47
2018-03-07T21:29:40.245Z,165.17
2018-03-07T21:32:09.253Z,162.57
2018-03-07T21:34:37.488Z,171.90
2018-03-07T21:37:05.746Z,171.67
2018-03-07T21:39:34.743Z,167.33
2018-03-07T21:42:02.993Z,153.10
2018-03-07T21:44:31.229Z,173.80
2018-03-07T21:47:00.249Z,174.87
2018-03-07T21:49:28.483Z,166.70
2018-03-07T21:51:57.548Z,171.07
2018-03-07T21:54:25.780Z,177.57
2018-03-07T21:56:54.038Z,182.63
2018-03-07T21:59:23.041Z,189.43
2018-03-07T22:01:51.606Z,202.90
2018-03-07T22:04:20.605Z,190.97
2018-03-07T22:06:49.625Z,188.67
2018-03-07T22:09:17.869Z,169.10
2018-03-07T22:11:46.881Z,151.73
2018-03-07T22:14:15.119Z,152.97
2018-03-07T22:16:43.361Z,159.37
2018-03-07T22:19:11.593Z,150.27
2018-03-07T22:21:39.848Z,161.80
2018-03-07T22:24:08.853Z,176.30
2018-03-07T22:26:37.852Z,172.10
2018-03-07T22:29:06.109Z,163.40
2018-03-07T22:31:35.109Z,189.90
2018-03-07T22:34:04.124Z,181.23
2018-03-07T22:36:32.355Z,158.13
2018-03-07T22:39:01.372Z,147.67
2018-03-07T22:41:29.604Z,135.57
2018-03-07T22:43:57.861Z,127.93
2018-03-07T22:46:26.084Z,129.03
2018-03-07T22:48:55.378Z,114.37
2018-03-07T22:51:24.384Z,115.37
2018-03-07T22:53:52.628Z,114.07
2018-03-07T22:56:20.864Z,112.17
2018-03-07T22:58:49.119Z,109.47
2018-03-07T23:01:17.572Z,111.67
2018-03-07T23:03:46.588Z,101.27
2018-03-07T23:06:14.825Z,95.27
2018-03-07T23:08:43.081Z,102.17
2018-03-07T23:11:11.317Z,119.17
2018-03-07T23:13:39.559Z,123.00
2018-03-07T23:16:08.564Z,113.13
2018-03-07T23:18:36.811Z,105.13
2018-03-07T23:21:05.811Z,118.63
2018-03-07T23:23:34.825Z,136.33
2018-03-07T23:26:03.063Z,141.50
2018-03-07T23:28:31.318Z,176.83
2018-03-07T23:30:59.561Z,182.57
2018-03-07T23:33:27.796Z,167.67
2018-03-07T23:35:56.844Z,135.50
2018-03-07T23:38:25.113Z,124.70
2018-03-07T23:40:53.338Z,126.30
2018-03-07T23:43:22.336Z,115.97
2018-03-07T23:45:51.353Z,94.17
2018-03-07T23:48:19.582Z,78.03
2018-03-07T23:50:47.815Z,65.80
2018-03-07T23:53:16.067Z,63.87
2018-03-07T23:55:45.069Z,60.40
2018-03-07T23:58:13.305Z,60.80
